Terminal Aerodrome Forecast
Issued by NWS Fort Wayne, IN

Home | Current Version | Previous Version | Graphics & Text | Print | Product List | Glossary On
Versions: 1 2 3 4 5 6 7 8 9 10 11 12 13 14 15 16 17 18 19 20 21 22
000
FTUS43 KIWX 061100
TAFFWA
TAF
KFWA 061120Z 0612/0712 11007KT 1/4SM FG VV002
     FM061400 15005KT 1SM BR OVC008
     FM061600 17007KT 4SM HZ BKN025
     FM061700 18008KT P6SM SCT035
     FM070000 VRB03KT P6SM SCT250=

USA.gov is the U.S. government's official web portal to all federal, state and local government web resources and services.